Create Custom Reports and Graphics: Custom Report

North/Central Map

Map

15 Minute Data

South County Map

Map

15 Minute Data

Northern Sonoma County Latest

13 Stations

15 Minute Data | America/Los_Angeles
as of 8/21/19 10:42 PM PDT
Station Date Time Temp (°F) RH (%) Dew Pt (°F) Wind Spd (mph) Wind Dir (°) Wind Gust (mph) Latest Rain (In) Daily Rain (In) Daily Min Temp (°F) Daily Max Temp (°F)
Cooley-Rockpile 8/21/19 2200 66.1   9.1 90   11 63.0   12.5 12.6 NW | 326 19.5   3.1 0.00 0.00 54.4   3.8 84.8   1.6
Cooley Lower Remote 8/21/19 2200 70.0   8.6 81   11 63.9   12.4 10.0 WNW | 284 15.8   6.7 0.00 0.00 57.1   4.6 86.1   1.5
Rancho Alexander-Cloverdale 8/21/19 2230 75.3   7.8 69   9 64.5   11.5 4.6 WNW | 300 10.2   1.3 0.00 0.00 60.7   8.4 93.5   4.0
Ranch 38 (Cloverdale-SE) 8/21/19 2230 73.9   8.1 71   8 64.1   11.2 9.3 NNW | 340 15.4   3.8 0.00 0.00 60.3   6.8 93.2   6.6
Hoffman - Geyserville 8/21/19 2230 75.4   8.2 69   8 64.4   11.2 4.4 WNW | 302 14.0   5.9 0.00 0.00 58.1   5.2 94.9   10.1
Geyserville Ranch 3 8/21/19 2230 76.2   7.5 67   10 64.6   11.4 7.3 WNW | 290 12.5   0.4 0.00 0.00 59.6   3.7 94.6   7.8
Ranch 40 (Geyserville-NE) 8/21/19 2230 74.2   9.5 71   3 64.2   10.4 7.1 NW | 316 15.4   6.9 0.00 0.00 58.6   3.8 97.0   11.7
Geyserville - S (Nervo Station) 8/21/19 2230 75.5   8.1 68   7 64.1   10.9 5.5 N | 0 14.8   2.0 0.00 0.00 57.0   1.5 95.7   11.1
River Oaks (Lytton) 8/21/19 2230 76.2   15.6 67   16 64.6   9.1 10.7 W | 279 18.8   16.2 0.00 0.00 52.1   1.7 95.8   9.3
Piccolo - Alexander Valley 8/21/19 2230 76.4   13.4 62   10 62.6   8.6 7.5 W | 269 15.4   12.1 0.00 0.00 53.0   0.5 94.5   7.8
Red Fan 8/21/19 2230 76.3   11.1 67   3 64.7   9.5 7.8 WNW | 286 14.2   8.5 0.00 0.00 53.1   2.0 96.1   8.8
Landslide 8/21/19 2230 76.3   17.1 67   19 64.7   9.5 3.8 WNW | 291 9.6   9.6 0.00 0.00 51.9   3.2 97.7   11.7
Dry Creek Valley 8/21/19 2230 76.4   14.2 68   10 65.0   9.8 6.4 NW | 319 10.8   3.7 0.00 0.00 53.0   3.9 95.5   11.5
Max     76.4 90 65.0 12.6 - 19.5 0.00 0.00 60.7 97.7
Avg     74.5 71 64.2 7.5 - 14.3 0.00 - - -
Min     66.1 62 62.6 3.8 - 9.6 0.00 0.00 51.9 84.8

Central Sonoma County Latest

22 Stations

15 Minute Data | America/Los_Angeles
as of 8/21/19 10:42 PM PDT
Station Date Time Temp (°F) RH (%) Dew Pt (°F) Wind Spd (mph) Wind Dir (°) Wind Gust (mph) Latest Rain (In) Daily Rain (In) Daily Min Temp (°F) Daily Max Temp (°F)
Healdsburg - S (Sodini) 8/21/19 2230 77.1   17.6 64   17 64.2   10.4 6.5 NW | 304 13.1   10.4 0.00 0.00 51.5   6.0 96.9   10.6
Ranch 8 (Windsor-NW) 8/21/19 2230 77.9   15.5 66   14 65.8   9.3 8.5 WNW | 282 20.6   15.1 0.00 0.00 54.5   2.6 97.2   11.9
Foothill Ranch 16 8/21/19 2230 76.8   17.7 66   19 64.6   10.0 3.9 NW | 314 10.3   9.5 0.00 0.00 51.0   6.6 99.0   14.9
Airport Ranch 14 8/21/19 2230 77.5   16.3 64   18 64.3   8.8 2.0 NW | 317 6.9   5.0 0.00 0.00 52.1   5.1 96.9   14.7
Silk Road 8/21/19 2230 77.9   20.0 63   28 64.5   9.0 3.0 NW | 326 7.2   6.0 0.00 0.00 49.8   7.0 94.9   11.7
Oak Meadows Ranch 5 8/21/19 2230 78.2   19.3 63   24 64.7   9.6 7.6 WNW | 297 14.2   13.8 0.00 0.00 50.3   6.4 95.6   13.6
Laughlin Rd (Windsor-South) 8/21/19 2230 77.4   17.1 63   21 64.0   8.5 - - - 0.00 0.00 51.9   4.7 95.1   12.4
Barnes Rd (SE Fulton) 8/21/19 2230 77.6   15.0 64   14 64.6   9.0 6.1 NW | 314 12.0   8.8 0.00 0.00 51.5   5.4 97.6   17.9
Crinella Ranch 21 8/21/19 2230 77.8   18.7 62   23 63.7   9.2 3.8 NW | 326 10.6   8.3 0.00 0.00 50.5   6.2 96.6   15.7
Denner Ranch Base 8/21/19 2230 77.6   18.8 62   25 63.6   8.6 2.7 WNW | 302 5.9   3.9 0.00 0.00 50.1   5.9 96.9   16.5
Guerneville Road (Santa Rosa Plains) 8/21/19 2230 73.8   15.7 72   14 64.2   10.2 0.4 SSW | 212 1.7   0.5 0.00 0.00 49.2   7.2 95.8   15.7
Rich Ranch (Guerneville Rd) 8/21/19 2230 73.7   14.8 72   12 64.1   9.8 - - - - - 49.5   7.3 97.3   13.9
Occidental Rd (Sebastopol) 8/21/19 2230 71.4   14.1 73   10 62.5   10.2 1.2 ESE | 123 2.8   1.3 0.00 0.00 49.0   7.0 96.2   16.0
Garrison Ranch 12 8/21/19 2230 77.8   18.9 61   28 63.3   7.5 2.2 WSW | 247 7.8   7.8 0.00 0.00 50.2   5.9 97.0   13.9
Laughlin Rd (Guerneville) 8/21/19 2230 77.1   20.6 65   23 64.4   11.5 1.9 SW | 228 6.4   6.4 0.00 0.00 50.0   2.4 96.7   13.8
Korbel Winery 8/21/19 2230 77.9   18.9 63   28 64.4   8.0 0.9 WNW | 291 3.3   1.7 0.00 0.00 51.9   4.3 97.2   14.1
Shone Farms (Forestville) 8/21/19 2230 77.8   17.7 63   20 64.2   9.1 1.6 W | 268 5.2   2.7 0.00 0.00 52.0   3.1 97.3   14.1
Ranch 30 (Forestville-NE) 8/21/19 2230 75.0   16.3 70   16 64.7   9.9 2.4 NNW | 328 4.6   2.7 0.00 0.00 51.4   4.2 95.9   12.0
Dutton Ranch (Graton-West) 8/21/19 2230 76.4   19.1 64   31 63.5   7.4 0.9 SW | 221 2.5   1.6 0.00 0.00 48.5   6.4 95.6   12.5
Mill Station Rd (Graton-South) 8/21/19 2230 71.6   14.5 77   11 64.2   10.4 3.4 SW | 234 6.8   4.9 0.00 0.00 46.3   8.7 93.5   14.9
Burnside Road (Sebastopol Hills) 8/21/19 2230 70.4   12.3 80   8 64.1   9.3 4.3 W | 264 7.6   5.6 0.00 0.00 54.4   0.5 90.4   16.0
Hirsch Vineyards 8/21/19 2230 67.9   7.6 86   11 63.7   11.3 9.5 N | 356 16.7   11.6 0.00 0.00 56.4   4.4 85.1   12.9
Max     78.2 86 65.8 9.5 - 20.6 0.00 0.00 56.4 99.0
Avg     75.8 68 64.1 3.6 - 8.3 0.00 - - -
Min     67.9 61 62.5 0.4 - 1.7 0.00 0.00 46.3 85.1

Southern Sonoma County Latest

14 Stations

15 Minute Data | America/Los_Angeles
as of 8/21/19 10:42 PM PDT
Station Date Time Temp (°F) RH (%) Dew Pt (°F) Wind Spd (mph) Wind Dir (°) Wind Gust (mph) Latest Rain (In) Daily Rain (In) Daily Min Temp (°F) Daily Max Temp (°F)
Lower Bennett Valley 8/21/19 2230 76.7   20.2 65   24 64.2   10.8 6.3 NNW | 335 11.2   10.0 0.00 0.00 48.5   7.0 94.0   13.6
Kunde - Kenwood 8/21/19 2200 78.7   20.1 58   22 62.9   10.2 1.6 NW | 309 7.3   7.3 0.00 0.00 47.5   3.4 94.7   12.9
Sonoma Valley (Bedrock) 8/21/19 2230 77.6   17.5 56   21 60.9   7.8 3.7 NNW | 338 9.1   7.7 0.00 0.00 49.8   0.3 95.7   10.9
Arnold (Sonoma) 8/21/19 2230 72.1   13.2 73   10 63.2   9.2 4.9 SW | 216 8.5   7.0 0.00 0.00 49.3   3.4 93.0   10.6
Schellville 8/21/19 2230 70.2   9.4 82   2 64.5   8.6 2.7 WSW | 248 8.8   2.4 0.00 0.00 50.7   7.3 94.1   10.4
Napoli (Sonoma-SE) 8/21/19 2230 70.1   10.5 79   6 63.2   8.2 1.0 E | 90 3.1   1.3 0.00 0.00 49.2   3.4 94.4   9.5
Diamond R71 (Carneros) 8/21/19 2230 69.4   9.4 82   3 63.7   8.2 2.4 WNW | 289 4.5   2.8 0.00 0.00 55.7   0.9 92.4   11.2
Huichica Upper 8/21/19 2230 69.8   9.6 80   4 63.4   8.1 9.0 WSW | 250 12.1   1.1 - - 56.9   0.6 92.4   9.9
Huichica-Lower 8/21/19 2230 70.2   10.1 80   4 63.8   8.4 1.1 SSW | 198 4.2   1.2 0.00 0.00 50.6   5.7 93.8   9.4
Stony Point (West Rohnert Park) 8/21/19 2230 69.8   14.6 82   8 64.2   11.8 1.1 SE | 144 2.5   1.0 0.00 0.00 47.1   7.6 93.2   16.9
Asellus (Penngrove) 8/21/19 2230 68.1   11.4 86   5 64.0   9.6 2.3 S | 178 3.1   2.3 0.00 0.00 50.0   6.4 91.5   13.9
Rodger's Creek 8/21/19 2230 66.3   8.5 91   0 63.5   8.4 3.5 WSW | 244 6.5   1.4 0.00 0.00 55.1   0.2 87.9   11.1
Frates R10 (East Petaluma) 8/21/19 2230 70.0   10.9 82   3 64.2   9.6 3.0 NW | 314 5.8   2.2 0.00 0.00 49.9   8.3 91.7   11.7
Sleepy Hollow-Lakeville 8/21/19 2230 70.8   11.5 79   4 64.2   9.7 4.5 NNW | 329 9.8   5.8 0.00 0.00 49.8   6.2 91.5   11.1
Max     78.7 91 64.5 9.0 - 12.1 0.00 0.00 56.9 95.7
Avg     71.4 77 63.6 3.4 - 6.9 0.00 - - -
Min     66.3 56 60.9 1.0 - 2.5 0.00 0.00 47.1 87.9